Airfield :
LOGIN :

Register | Disclaimer

   EN    FR    IT 

 










Legend :    VFR   Marginal VFR   IFR   Intensive IFR   Very Intensive IFR
Visi :
Ceiling :
>= 8 km
>= 3000ft
5 to 8 km
1000 to 3000 ft
1500m to 5 km
500 to 1000 ft
800 to 1500m
200 to 500 ft
< 800m
< 200 ft
Symbols :   Thunderstorms  Fog  Heavy snow  Heavy precipitations  Wind > 20 kt
SIGMETs :     Misc.  Thunderstorms  Icing  Turbulence  Mountain Waves  Volcanic Ashes






- Airport Elevation : 156 ft
- IATA code : LCC


LIBN - Lecce Galatine (military)

CURRENT METAR :
  • 062055Z 35005KT CAVOK 12/11 Q1023 RMK SCT SCT180 VIS MIN 9999 WIND THR14 34006KT WIND THR32 35007KT BLU

EXPIRED METARs :
  • 061955Z 35006KT CAVOK 11/10 Q1023 RMK SCT SCT200 VIS MIN 9999 WIND THR14 34007KT WIND THR32 35007KT BLU
  • 061855Z 33002KT CAVOK 12/10 Q1023 RMK SCT SCT200 VIS MIN 9999 WIND THR14 33002KT WIND THR32 33002KT BLU
  • 061755Z 03004KT CAVOK 14/09 Q1022 RMK SCT SCT200 VIS MIN 9999 WIND THR14 03004KT WIND THR32 00000KT BLU

TAF TAF LIBN
Valid from the 06 at 15:00 until the 07 at 00:00 UTC


061400Z 0615/0624 VRB03KT 9999 FEW035
TEMPO 0615/0617 03007KT SCT035



MET'MAP, your aeronautical weather chart ! - Copyright ORBIFLY December 2007 - Disclaimer

ORBIFLY MET'MAP TEAM :

Programming & Development : Alexandra Zaïnal
Concept & original design : Baudouin d'Aumeries
Assistance for programming : Marc-Olivier Méhu
Technical & hardware support : Manuel Goepfert

Contact : metmap@orbifly.com




SOURCES & CREDITS :

   NOAA